sensor_id;sensor_type;location;lat;lon;timestamp;P1;durP1;ratioP1;P2;durP2;ratioP2
12425;SDS011;6277;49.824;9.562;2022-11-09T00:02:09;4.57;;;2.97;;
12425;SDS011;6277;49.824;9.562;2022-11-09T00:04:35;3.38;;;2.30;;
12425;SDS011;6277;49.824;9.562;2022-11-09T00:07:00;3.72;;;2.20;;
12425;SDS011;6277;49.824;9.562;2022-11-09T00:09:26;2.90;;;2.00;;
12425;SDS011;6277;49.824;9.562;2022-11-09T00:11:52;2.95;;;1.98;;
12425;SDS011;6277;49.824;9.562;2022-11-09T00:14:18;2.85;;;2.22;;
12425;SDS011;6277;49.824;9.562;2022-11-09T00:16:43;3.45;;;2.00;;
12425;SDS011;6277;49.824;9.562;2022-11-09T00:19:09;3.22;;;1.85;;
12425;SDS011;6277;49.824;9.562;2022-11-09T00:21:34;2.85;;;2.30;;
12425;SDS011;6277;49.824;9.562;2022-11-09T00:24:00;3.38;;;2.40;;
12425;SDS011;6277;49.824;9.562;2022-11-09T00:26:25;3.15;;;2.20;;
12425;SDS011;6277;49.824;9.562;2022-11-09T00:28:51;2.80;;;2.05;;
12425;SDS011;6277;49.824;9.562;2022-11-09T00:31:18;2.92;;;2.03;;
12425;SDS011;6277;49.824;9.562;2022-11-09T00:33:49;2.55;;;2.15;;
12425;SDS011;6277;49.824;9.562;2022-11-09T00:36:17;3.10;;;1.80;;
12425;SDS011;6277;49.824;9.562;2022-11-09T00:38:46;3.28;;;2.05;;
12425;SDS011;6277;49.824;9.562;2022-11-09T00:41:14;2.90;;;2.03;;
12425;SDS011;6277;49.824;9.562;2022-11-09T00:43:39;4.47;;;2.00;;
12425;SDS011;6277;49.824;9.562;2022-11-09T00:46:05;2.65;;;1.98;;
12425;SDS011;6277;49.824;9.562;2022-11-09T00:48:31;4.25;;;1.80;;
12425;SDS011;6277;49.824;9.562;2022-11-09T00:50:58;3.05;;;2.13;;
12425;SDS011;6277;49.824;9.562;2022-11-09T00:53:24;2.58;;;1.85;;
12425;SDS011;6277;49.824;9.562;2022-11-09T00:58:20;2.65;;;1.50;;
12425;SDS011;6277;49.824;9.562;2022-11-09T01:00:46;2.40;;;1.70;;
12425;SDS011;6277;49.824;9.562;2022-11-09T01:03:11;2.75;;;1.70;;
12425;SDS011;6277;49.824;9.562;2022-11-09T01:05:37;2.00;;;1.70;;
12425;SDS011;6277;49.824;9.562;2022-11-09T01:08:06;2.80;;;1.60;;
12425;SDS011;6277;49.824;9.562;2022-11-09T01:10:32;3.08;;;2.10;;
12425;SDS011;6277;49.824;9.562;2022-11-09T01:12:58;3.65;;;1.83;;
12425;SDS011;6277;49.824;9.562;2022-11-09T01:15:23;2.95;;;1.88;;
12425;SDS011;6277;49.824;9.562;2022-11-09T01:17:49;3.58;;;1.70;;
12425;SDS011;6277;49.824;9.562;2022-11-09T01:20:15;2.60;;;1.48;;
12425;SDS011;6277;49.824;9.562;2022-11-09T01:22:41;2.22;;;1.65;;
12425;SDS011;6277;49.824;9.562;2022-11-09T01:25:07;2.08;;;1.52;;
12425;SDS011;6277;49.824;9.562;2022-11-09T01:27:33;2.15;;;1.20;;
12425;SDS011;6277;49.824;9.562;2022-11-09T01:30:00;2.63;;;1.40;;
12425;SDS011;6277;49.824;9.562;2022-11-09T01:32:25;1.85;;;1.52;;
12425;SDS011;6277;49.824;9.562;2022-11-09T01:34:51;1.65;;;1.45;;
12425;SDS011;6277;49.824;9.562;2022-11-09T01:37:16;2.42;;;1.60;;
12425;SDS011;6277;49.824;9.562;2022-11-09T01:39:42;2.50;;;1.40;;
12425;SDS011;6277;49.824;9.562;2022-11-09T01:42:07;1.85;;;1.27;;
12425;SDS011;6277;49.824;9.562;2022-11-09T01:44:33;2.45;;;1.58;;
12425;SDS011;6277;49.824;9.562;2022-11-09T01:47:43;2.33;;;1.40;;
12425;SDS011;6277;49.824;9.562;2022-11-09T01:49:52;2.35;;;1.52;;
12425;SDS011;6277;49.824;9.562;2022-11-09T01:55:00;2.47;;;1.48;;
12425;SDS011;6277;49.824;9.562;2022-11-09T01:57:30;1.80;;;1.50;;
12425;SDS011;6277;49.824;9.562;2022-11-09T02:00:05;1.75;;;1.40;;
12425;SDS011;6277;49.824;9.562;2022-11-09T02:02:32;4.47;;;1.42;;
12425;SDS011;6277;49.824;9.562;2022-11-09T02:05:00;2.35;;;1.40;;
12425;SDS011;6277;49.824;9.562;2022-11-09T02:07:30;2.70;;;1.80;;
12425;SDS011;6277;49.824;9.562;2022-11-09T02:12:48;2.25;;;1.42;;
12425;SDS011;6277;49.824;9.562;2022-11-09T02:15:14;3.08;;;1.60;;
12425;SDS011;6277;49.824;9.562;2022-11-09T02:17:40;2.67;;;1.67;;
12425;SDS011;6277;49.824;9.562;2022-11-09T02:20:14;2.72;;;1.63;;
12425;SDS011;6277;49.824;9.562;2022-11-09T02:22:39;2.90;;;1.45;;
12425;SDS011;6277;49.824;9.562;2022-11-09T02:25:06;2.17;;;1.58;;
12425;SDS011;6277;49.824;9.562;2022-11-09T02:27:33;1.60;;;1.23;;
12425;SDS011;6277;49.824;9.562;2022-11-09T02:29:59;2.10;;;1.30;;
12425;SDS011;6277;49.824;9.562;2022-11-09T02:32:26;2.33;;;1.40;;
12425;SDS011;6277;49.824;9.562;2022-11-09T02:34:53;2.80;;;1.15;;
12425;SDS011;6277;49.824;9.562;2022-11-09T02:37:25;1.58;;;1.30;;
12425;SDS011;6277;49.824;9.562;2022-11-09T02:39:52;2.00;;;1.40;;
12425;SDS011;6277;49.824;9.562;2022-11-09T02:42:20;1.90;;;1.40;;
12425;SDS011;6277;49.824;9.562;2022-11-09T02:44:50;2.90;;;1.50;;
12425;SDS011;6277;49.824;9.562;2022-11-09T02:47:20;2.95;;;1.73;;
12425;SDS011;6277;49.824;9.562;2022-11-09T02:49:46;3.30;;;1.65;;
12425;SDS011;6277;49.824;9.562;2022-11-09T02:52:11;3.40;;;1.80;;
12425;SDS011;6277;49.824;9.562;2022-11-09T02:54:37;2.63;;;1.60;;
12425;SDS011;6277;49.824;9.562;2022-11-09T02:57:02;2.15;;;1.65;;
12425;SDS011;6277;49.824;9.562;2022-11-09T02:59:28;3.47;;;1.60;;
12425;SDS011;6277;49.824;9.562;2022-11-09T03:01:54;1.42;;;1.33;;
12425;SDS011;6277;49.824;9.562;2022-11-09T03:04:19;2.38;;;1.50;;
12425;SDS011;6277;49.824;9.562;2022-11-09T03:06:45;1.98;;;1.55;;
12425;SDS011;6277;49.824;9.562;2022-11-09T03:09:11;2.58;;;1.80;;
12425;SDS011;6277;49.824;9.562;2022-11-09T03:11:38;2.65;;;1.50;;
12425;SDS011;6277;49.824;9.562;2022-11-09T03:14:04;1.80;;;1.20;;
12425;SDS011;6277;49.824;9.562;2022-11-09T03:16:30;2.13;;;1.27;;
12425;SDS011;6277;49.824;9.562;2022-11-09T03:18:56;2.97;;;1.50;;
12425;SDS011;6277;49.824;9.562;2022-11-09T03:21:22;2.20;;;1.50;;
12425;SDS011;6277;49.824;9.562;2022-11-09T03:23:48;1.95;;;1.50;;
12425;SDS011;6277;49.824;9.562;2022-11-09T03:26:14;2.10;;;1.55;;
12425;SDS011;6277;49.824;9.562;2022-11-09T03:28:40;2.97;;;1.48;;
12425;SDS011;6277;49.824;9.562;2022-11-09T03:31:06;1.83;;;1.50;;
12425;SDS011;6277;49.824;9.562;2022-11-09T03:33:32;2.17;;;1.80;;
12425;SDS011;6277;49.824;9.562;2022-11-09T03:35:58;2.28;;;1.45;;
12425;SDS011;6277;49.824;9.562;2022-11-09T03:38:24;1.95;;;1.25;;
12425;SDS011;6277;49.824;9.562;2022-11-09T03:40:49;2.35;;;1.70;;
12425;SDS011;6277;49.824;9.562;2022-11-09T03:43:15;2.28;;;1.52;;
12425;SDS011;6277;49.824;9.562;2022-11-09T03:45:40;1.35;;;1.10;;
12425;SDS011;6277;49.824;9.562;2022-11-09T03:48:06;2.47;;;1.60;;
12425;SDS011;6277;49.824;9.562;2022-11-09T03:50:32;2.92;;;1.42;;
12425;SDS011;6277;49.824;9.562;2022-11-09T03:52:59;2.10;;;1.30;;
12425;SDS011;6277;49.824;9.562;2022-11-09T03:55:25;2.42;;;1.40;;
12425;SDS011;6277;49.824;9.562;2022-11-09T03:57:51;2.28;;;1.35;;
12425;SDS011;6277;49.824;9.562;2022-11-09T04:00:18;2.38;;;1.60;;
12425;SDS011;6277;49.824;9.562;2022-11-09T04:02:45;2.38;;;1.70;;
12425;SDS011;6277;49.824;9.562;2022-11-09T04:05:11;2.53;;;1.60;;
12425;SDS011;6277;49.824;9.562;2022-11-09T04:07:38;2.60;;;1.73;;
12425;SDS011;6277;49.824;9.562;2022-11-09T04:10:04;4.63;;;1.67;;
12425;SDS011;6277;49.824;9.562;2022-11-09T04:12:30;3.67;;;1.80;;
12425;SDS011;6277;49.824;9.562;2022-11-09T04:14:56;3.25;;;1.67;;
12425;SDS011;6277;49.824;9.562;2022-11-09T04:17:21;2.33;;;1.65;;
12425;SDS011;6277;49.824;9.562;2022-11-09T04:19:47;3.47;;;1.90;;
12425;SDS011;6277;49.824;9.562;2022-11-09T04:22:12;3.28;;;1.90;;
12425;SDS011;6277;49.824;9.562;2022-11-09T04:24:38;3.33;;;2.00;;
12425;SDS011;6277;49.824;9.562;2022-11-09T04:27:03;2.95;;;2.13;;
12425;SDS011;6277;49.824;9.562;2022-11-09T04:29:29;2.83;;;1.90;;
12425;SDS011;6277;49.824;9.562;2022-11-09T04:31:55;3.63;;;2.08;;
12425;SDS011;6277;49.824;9.562;2022-11-09T04:34:20;3.30;;;1.92;;
12425;SDS011;6277;49.824;9.562;2022-11-09T04:36:46;2.60;;;2.00;;
12425;SDS011;6277;49.824;9.562;2022-11-09T04:39:11;4.28;;;2.25;;
12425;SDS011;6277;49.824;9.562;2022-11-09T04:41:37;4.60;;;2.20;;
12425;SDS011;6277;49.824;9.562;2022-11-09T04:44:03;3.05;;;2.08;;
12425;SDS011;6277;49.824;9.562;2022-11-09T04:46:28;2.90;;;1.88;;
12425;SDS011;6277;49.824;9.562;2022-11-09T04:48:54;3.10;;;1.95;;
12425;SDS011;6277;49.824;9.562;2022-11-09T04:51:20;2.75;;;2.03;;
12425;SDS011;6277;49.824;9.562;2022-11-09T04:53:45;3.03;;;2.22;;
12425;SDS011;6277;49.824;9.562;2022-11-09T04:56:11;3.47;;;2.42;;
12425;SDS011;6277;49.824;9.562;2022-11-09T04:58:37;3.80;;;2.65;;
12425;SDS011;6277;49.824;9.562;2022-11-09T05:01:04;3.78;;;2.28;;
12425;SDS011;6277;49.824;9.562;2022-11-09T05:03:34;4.43;;;2.58;;
12425;SDS011;6277;49.824;9.562;2022-11-09T05:06:00;3.92;;;2.80;;
12425;SDS011;6277;49.824;9.562;2022-11-09T05:08:45;3.50;;;2.70;;
12425;SDS011;6277;49.824;9.562;2022-11-09T05:11:11;3.03;;;2.35;;
12425;SDS011;6277;49.824;9.562;2022-11-09T05:13:37;3.20;;;2.38;;
12425;SDS011;6277;49.824;9.562;2022-11-09T05:16:02;3.05;;;2.35;;
12425;SDS011;6277;49.824;9.562;2022-11-09T05:18:28;2.78;;;2.30;;
12425;SDS011;6277;49.824;9.562;2022-11-09T05:20:57;3.22;;;2.20;;
12425;SDS011;6277;49.824;9.562;2022-11-09T05:23:23;2.88;;;2.05;;
12425;SDS011;6277;49.824;9.562;2022-11-09T05:26:07;3.03;;;2.25;;
12425;SDS011;6277;49.824;9.562;2022-11-09T05:28:33;2.58;;;2.13;;
12425;SDS011;6277;49.824;9.562;2022-11-09T05:30:58;2.80;;;2.08;;
12425;SDS011;6277;49.824;9.562;2022-11-09T05:33:24;3.25;;;2.20;;
12425;SDS011;6277;49.824;9.562;2022-11-09T05:35:49;2.88;;;2.08;;
12425;SDS011;6277;49.824;9.562;2022-11-09T05:38:17;3.83;;;2.60;;
12425;SDS011;6277;49.824;9.562;2022-11-09T05:40:43;3.33;;;2.15;;
12425;SDS011;6277;49.824;9.562;2022-11-09T05:43:08;2.28;;;1.80;;
12425;SDS011;6277;49.824;9.562;2022-11-09T05:45:34;4.65;;;2.28;;
12425;SDS011;6277;49.824;9.562;2022-11-09T05:48:01;2.33;;;1.90;;
12425;SDS011;6277;49.824;9.562;2022-11-09T05:50:28;2.55;;;2.05;;
12425;SDS011;6277;49.824;9.562;2022-11-09T05:52:53;2.30;;;2.08;;
12425;SDS011;6277;49.824;9.562;2022-11-09T05:55:19;3.08;;;2.15;;
12425;SDS011;6277;49.824;9.562;2022-11-09T05:57:45;4.13;;;2.10;;
12425;SDS011;6277;49.824;9.562;2022-11-09T06:00:10;2.92;;;1.88;;
12425;SDS011;6277;49.824;9.562;2022-11-09T06:02:36;3.03;;;2.05;;
12425;SDS011;6277;49.824;9.562;2022-11-09T06:05:02;3.60;;;2.50;;
12425;SDS011;6277;49.824;9.562;2022-11-09T06:07:28;3.78;;;2.15;;
12425;SDS011;6277;49.824;9.562;2022-11-09T06:09:53;2.85;;;1.90;;
12425;SDS011;6277;49.824;9.562;2022-11-09T06:12:19;3.55;;;2.58;;
12425;SDS011;6277;49.824;9.562;2022-11-09T06:14:44;2.40;;;2.03;;
12425;SDS011;6277;49.824;9.562;2022-11-09T06:17:10;3.42;;;2.38;;
12425;SDS011;6277;49.824;9.562;2022-11-09T06:19:35;3.90;;;2.10;;
12425;SDS011;6277;49.824;9.562;2022-11-09T06:22:01;2.92;;;2.30;;
12425;SDS011;6277;49.824;9.562;2022-11-09T06:24:26;3.03;;;2.08;;
12425;SDS011;6277;49.824;9.562;2022-11-09T06:26:52;2.75;;;2.15;;
12425;SDS011;6277;49.824;9.562;2022-11-09T06:29:18;2.97;;;2.10;;
12425;SDS011;6277;49.824;9.562;2022-11-09T06:31:43;3.30;;;2.55;;
12425;SDS011;6277;49.824;9.562;2022-11-09T06:34:10;2.60;;;2.10;;
12425;SDS011;6277;49.824;9.562;2022-11-09T06:36:35;4.00;;;2.60;;
12425;SDS011;6277;49.824;9.562;2022-11-09T06:39:01;3.15;;;2.35;;
12425;SDS011;6277;49.824;9.562;2022-11-09T06:41:26;2.60;;;2.20;;
12425;SDS011;6277;49.824;9.562;2022-11-09T06:43:52;3.75;;;2.53;;
12425;SDS011;6277;49.824;9.562;2022-11-09T06:46:17;4.72;;;3.08;;
12425;SDS011;6277;49.824;9.562;2022-11-09T06:48:44;3.80;;;2.55;;
12425;SDS011;6277;49.824;9.562;2022-11-09T06:51:10;4.30;;;2.30;;
12425;SDS011;6277;49.824;9.562;2022-11-09T06:53:36;3.58;;;2.58;;
12425;SDS011;6277;49.824;9.562;2022-11-09T06:56:03;3.25;;;2.92;;
12425;SDS011;6277;49.824;9.562;2022-11-09T06:58:30;4.20;;;3.08;;
12425;SDS011;6277;49.824;9.562;2022-11-09T07:00:55;4.75;;;3.15;;
12425;SDS011;6277;49.824;9.562;2022-11-09T07:03:22;3.65;;;3.20;;
12425;SDS011;6277;49.824;9.562;2022-11-09T07:05:48;4.13;;;3.28;;
12425;SDS011;6277;49.824;9.562;2022-11-09T07:08:15;4.07;;;2.92;;
12425;SDS011;6277;49.824;9.562;2022-11-09T07:10:42;2.95;;;2.35;;
12425;SDS011;6277;49.824;9.562;2022-11-09T07:13:08;5.43;;;3.05;;
12425;SDS011;6277;49.824;9.562;2022-11-09T07:15:35;3.50;;;2.90;;
12425;SDS011;6277;49.824;9.562;2022-11-09T07:18:02;2.92;;;2.60;;
12425;SDS011;6277;49.824;9.562;2022-11-09T07:20:29;3.30;;;2.70;;
12425;SDS011;6277;49.824;9.562;2022-11-09T07:22:55;3.22;;;2.60;;
12425;SDS011;6277;49.824;9.562;2022-11-09T07:25:21;3.40;;;2.80;;
12425;SDS011;6277;49.824;9.562;2022-11-09T07:27:46;4.00;;;2.80;;
12425;SDS011;6277;49.824;9.562;2022-11-09T07:30:12;2.85;;;2.53;;
12425;SDS011;6277;49.824;9.562;2022-11-09T07:32:38;4.00;;;2.97;;
12425;SDS011;6277;49.824;9.562;2022-11-09T07:35:05;2.95;;;2.63;;
12425;SDS011;6277;49.824;9.562;2022-11-09T07:37:31;3.53;;;2.92;;
12425;SDS011;6277;49.824;9.562;2022-11-09T07:39:57;3.30;;;2.42;;
12425;SDS011;6277;49.824;9.562;2022-11-09T07:42:22;3.00;;;2.70;;
12425;SDS011;6277;49.824;9.562;2022-11-09T07:44:49;3.30;;;2.85;;
12425;SDS011;6277;49.824;9.562;2022-11-09T07:47:15;4.28;;;2.85;;
12425;SDS011;6277;49.824;9.562;2022-11-09T07:49:41;3.90;;;3.00;;
12425;SDS011;6277;49.824;9.562;2022-11-09T07:52:07;4.57;;;2.97;;
12425;SDS011;6277;49.824;9.562;2022-11-09T07:54:32;5.00;;;2.88;;
12425;SDS011;6277;49.824;9.562;2022-11-09T07:56:58;3.22;;;2.70;;
12425;SDS011;6277;49.824;9.562;2022-11-09T07:59:23;4.65;;;2.95;;
12425;SDS011;6277;49.824;9.562;2022-11-09T08:01:49;3.45;;;2.55;;
12425;SDS011;6277;49.824;9.562;2022-11-09T08:04:14;2.45;;;2.10;;
12425;SDS011;6277;49.824;9.562;2022-11-09T08:06:40;4.10;;;2.53;;
12425;SDS011;6277;49.824;9.562;2022-11-09T08:09:06;2.80;;;2.22;;
12425;SDS011;6277;49.824;9.562;2022-11-09T08:11:31;3.03;;;2.20;;
12425;SDS011;6277;49.824;9.562;2022-11-09T08:13:57;2.22;;;2.00;;
12425;SDS011;6277;49.824;9.562;2022-11-09T08:16:23;2.30;;;2.10;;
12425;SDS011;6277;49.824;9.562;2022-11-09T08:18:49;2.15;;;1.92;;
12425;SDS011;6277;49.824;9.562;2022-11-09T08:21:15;2.28;;;1.90;;
12425;SDS011;6277;49.824;9.562;2022-11-09T08:23:41;3.28;;;2.03;;
12425;SDS011;6277;49.824;9.562;2022-11-09T08:26:06;2.30;;;1.90;;
12425;SDS011;6277;49.824;9.562;2022-11-09T08:28:32;2.38;;;1.80;;
12425;SDS011;6277;49.824;9.562;2022-11-09T08:30:59;2.70;;;1.40;;
12425;SDS011;6277;49.824;9.562;2022-11-09T08:33:28;2.78;;;1.35;;
12425;SDS011;6277;49.824;9.562;2022-11-09T08:35:55;1.65;;;1.27;;
12425;SDS011;6277;49.824;9.562;2022-11-09T08:38:21;2.83;;;1.38;;
12425;SDS011;6277;49.824;9.562;2022-11-09T08:40:46;1.40;;;1.08;;
12425;SDS011;6277;49.824;9.562;2022-11-09T08:43:12;1.75;;;1.10;;
12425;SDS011;6277;49.824;9.562;2022-11-09T08:45:38;1.50;;;1.10;;
12425;SDS011;6277;49.824;9.562;2022-11-09T08:48:05;1.42;;;1.08;;
12425;SDS011;6277;49.824;9.562;2022-11-09T08:50:32;1.10;;;1.00;;
12425;SDS011;6277;49.824;9.562;2022-11-09T08:52:59;1.48;;;1.05;;
12425;SDS011;6277;49.824;9.562;2022-11-09T08:55:25;2.45;;;0.90;;
12425;SDS011;6277;49.824;9.562;2022-11-09T08:57:57;1.25;;;0.90;;
12425;SDS011;6277;49.824;9.562;2022-11-09T09:00:24;0.85;;;0.70;;
12425;SDS011;6277;49.824;9.562;2022-11-09T09:02:50;1.83;;;0.57;;
12425;SDS011;6277;49.824;9.562;2022-11-09T09:05:16;1.00;;;0.60;;
12425;SDS011;6277;49.824;9.562;2022-11-09T09:07:42;1.20;;;0.70;;
12425;SDS011;6277;49.824;9.562;2022-11-09T09:10:08;1.20;;;0.80;;
12425;SDS011;6277;49.824;9.562;2022-11-09T09:12:33;0.70;;;0.70;;
12425;SDS011;6277;49.824;9.562;2022-11-09T09:14:59;0.85;;;0.65;;
12425;SDS011;6277;49.824;9.562;2022-11-09T09:17:25;1.55;;;1.00;;
12425;SDS011;6277;49.824;9.562;2022-11-09T09:19:50;0.77;;;0.60;;
12425;SDS011;6277;49.824;9.562;2022-11-09T09:22:16;0.93;;;0.80;;
12425;SDS011;6277;49.824;9.562;2022-11-09T09:24:42;1.00;;;0.90;;
12425;SDS011;6277;49.824;9.562;2022-11-09T09:27:07;1.13;;;0.60;;
12425;SDS011;6277;49.824;9.562;2022-11-09T09:29:33;0.77;;;0.73;;
12425;SDS011;6277;49.824;9.562;2022-11-09T09:31:59;2.10;;;0.70;;
12425;SDS011;6277;49.824;9.562;2022-11-09T09:34:24;0.60;;;0.60;;
12425;SDS011;6277;49.824;9.562;2022-11-09T09:36:53;1.15;;;0.80;;
12425;SDS011;6277;49.824;9.562;2022-11-09T09:39:19;1.85;;;0.90;;
12425;SDS011;6277;49.824;9.562;2022-11-09T09:41:45;0.82;;;0.73;;
12425;SDS011;6277;49.824;9.562;2022-11-09T09:49:30;0.80;;;0.80;;
12425;SDS011;6277;49.824;9.562;2022-11-09T09:57:34;0.80;;;0.80;;
12425;SDS011;6277;49.824;9.562;2022-11-09T10:00:02;0.90;;;0.85;;
12425;SDS011;6277;49.824;9.562;2022-11-09T10:02:34;0.95;;;0.70;;
12425;SDS011;6277;49.824;9.562;2022-11-09T10:05:01;0.75;;;0.70;;
12425;SDS011;6277;49.824;9.562;2022-11-09T10:13:31;1.83;;;0.82;;
12425;SDS011;6277;49.824;9.562;2022-11-09T10:27:21;1.20;;;0.57;;
12425;SDS011;6277;49.824;9.562;2022-11-09T10:30:00;0.80;;;0.70;;
12425;SDS011;6277;49.824;9.562;2022-11-09T10:32:31;0.77;;;0.68;;
12425;SDS011;6277;49.824;9.562;2022-11-09T10:35:01;0.85;;;0.60;;
12425;SDS011;6277;49.824;9.562;2022-11-09T10:37:39;0.57;;;0.50;;
12425;SDS011;6277;49.824;9.562;2022-11-09T10:40:12;0.70;;;0.57;;
12425;SDS011;6277;49.824;9.562;2022-11-09T10:42:53;0.75;;;0.60;;
12425;SDS011;6277;49.824;9.562;2022-11-09T10:45:27;0.82;;;0.70;;
12425;SDS011;6277;49.824;9.562;2022-11-09T10:47:53;0.47;;;0.47;;
12425;SDS011;6277;49.824;9.562;2022-11-09T10:50:36;0.70;;;0.50;;
12425;SDS011;6277;49.824;9.562;2022-11-09T10:53:17;0.70;;;0.60;;
12425;SDS011;6277;49.824;9.562;2022-11-09T10:55:48;0.57;;;0.57;;
12425;SDS011;6277;49.824;9.562;2022-11-09T10:58:21;0.50;;;0.50;;
12425;SDS011;6277;49.824;9.562;2022-11-09T11:01:12;0.93;;;0.60;;
12425;SDS011;6277;49.824;9.562;2022-11-09T11:03:47;0.82;;;0.70;;
12425;SDS011;6277;49.824;9.562;2022-11-09T11:06:25;0.52;;;0.40;;
12425;SDS011;6277;49.824;9.562;2022-11-09T11:11:32;0.60;;;0.60;;
12425;SDS011;6277;49.824;9.562;2022-11-09T11:14:05;0.38;;;0.38;;
12425;SDS011;6277;49.824;9.562;2022-11-09T11:16:34;0.55;;;0.50;;
12425;SDS011;6277;49.824;9.562;2022-11-09T11:19:02;1.38;;;0.70;;
12425;SDS011;6277;49.824;9.562;2022-11-09T11:21:28;0.80;;;0.55;;
12425;SDS011;6277;49.824;9.562;2022-11-09T11:26:42;2.03;;;0.70;;
12425;SDS011;6277;49.824;9.562;2022-11-09T11:32:17;0.88;;;0.50;;
12425;SDS011;6277;49.824;9.562;2022-11-09T11:34:44;0.47;;;0.40;;
12425;SDS011;6277;49.824;9.562;2022-11-09T11:39:54;0.85;;;0.55;;
12425;SDS011;6277;49.824;9.562;2022-11-09T11:42:34;0.82;;;0.50;;
12425;SDS011;6277;49.824;9.562;2022-11-09T11:45:34;0.93;;;0.50;;
12425;SDS011;6277;49.824;9.562;2022-11-09T11:48:23;0.60;;;0.43;;
12425;SDS011;6277;49.824;9.562;2022-11-09T11:59:38;0.50;;;0.47;;
12425;SDS011;6277;49.824;9.562;2022-11-09T12:08:23;1.13;;;0.55;;
12425;SDS011;6277;49.824;9.562;2022-11-09T12:16:09;0.80;;;0.50;;
12425;SDS011;6277;49.824;9.562;2022-11-09T12:18:50;0.70;;;0.60;;
12425;SDS011;6277;49.824;9.562;2022-11-09T12:21:22;0.95;;;0.55;;
12425;SDS011;6277;49.824;9.562;2022-11-09T12:27:09;0.65;;;0.50;;
12425;SDS011;6277;49.824;9.562;2022-11-09T12:32:43;1.35;;;0.60;;
12425;SDS011;6277;49.824;9.562;2022-11-09T12:35:22;1.02;;;0.43;;
12425;SDS011;6277;49.824;9.562;2022-11-09T12:40:59;1.15;;;0.60;;
12425;SDS011;6277;49.824;9.562;2022-11-09T12:43:46;1.17;;;0.50;;
12425;SDS011;6277;49.824;9.562;2022-11-09T12:46:37;0.90;;;0.57;;
12425;SDS011;6277;49.824;9.562;2022-11-09T12:49:09;0.60;;;0.50;;
12425;SDS011;6277;49.824;9.562;2022-11-09T12:51:51;0.82;;;0.60;;
12425;SDS011;6277;49.824;9.562;2022-11-09T12:54:16;1.02;;;0.57;;
12425;SDS011;6277;49.824;9.562;2022-11-09T12:56:48;1.15;;;0.60;;
12425;SDS011;6277;49.824;9.562;2022-11-09T12:59:20;1.85;;;0.40;;
12425;SDS011;6277;49.824;9.562;2022-11-09T13:01:58;0.77;;;0.50;;
12425;SDS011;6277;49.824;9.562;2022-11-09T13:04:26;0.50;;;0.50;;
12425;SDS011;6277;49.824;9.562;2022-11-09T13:09:33;0.82;;;0.60;;
12425;SDS011;6277;49.824;9.562;2022-11-09T13:11:59;1.58;;;0.40;;
12425;SDS011;6277;49.824;9.562;2022-11-09T13:14:43;1.50;;;0.90;;
12425;SDS011;6277;49.824;9.562;2022-11-09T13:24:52;1.00;;;0.50;;
12425;SDS011;6277;49.824;9.562;2022-11-09T13:29:57;1.85;;;0.60;;
12425;SDS011;6277;49.824;9.562;2022-11-09T13:34:58;1.20;;;0.60;;
12425;SDS011;6277;49.824;9.562;2022-11-09T13:40:01;0.82;;;0.38;;
12425;SDS011;6277;49.824;9.562;2022-11-09T13:50:54;0.70;;;0.40;;
12425;SDS011;6277;49.824;9.562;2022-11-09T13:53:30;1.90;;;0.65;;
12425;SDS011;6277;49.824;9.562;2022-11-09T13:56:12;0.95;;;0.43;;
12425;SDS011;6277;49.824;9.562;2022-11-09T13:58:42;1.90;;;0.60;;
12425;SDS011;6277;49.824;9.562;2022-11-09T14:01:28;1.15;;;0.50;;
12425;SDS011;6277;49.824;9.562;2022-11-09T14:04:26;1.15;;;0.40;;
12425;SDS011;6277;49.824;9.562;2022-11-09T14:07:01;1.58;;;0.47;;
12425;SDS011;6277;49.824;9.562;2022-11-09T14:12:32;1.85;;;0.40;;
12425;SDS011;6277;49.824;9.562;2022-11-09T14:15:38;1.95;;;0.50;;
12425;SDS011;6277;49.824;9.562;2022-11-09T14:24:29;1.30;;;0.50;;
12425;SDS011;6277;49.824;9.562;2022-11-09T14:27:03;0.75;;;0.30;;
12425;SDS011;6277;49.824;9.562;2022-11-09T14:29:32;1.48;;;0.43;;
12425;SDS011;6277;49.824;9.562;2022-11-09T14:31:59;2.08;;;0.55;;
12425;SDS011;6277;49.824;9.562;2022-11-09T14:34:26;1.30;;;0.40;;
12425;SDS011;6277;49.824;9.562;2022-11-09T14:36:52;2.40;;;0.60;;
12425;SDS011;6277;49.824;9.562;2022-11-09T14:39:24;1.60;;;0.50;;
12425;SDS011;6277;49.824;9.562;2022-11-09T14:41:54;1.48;;;0.57;;
12425;SDS011;6277;49.824;9.562;2022-11-09T14:44:28;1.85;;;0.60;;
12425;SDS011;6277;49.824;9.562;2022-11-09T14:46:59;1.45;;;0.60;;
12425;SDS011;6277;49.824;9.562;2022-11-09T14:51:55;1.13;;;0.60;;
12425;SDS011;6277;49.824;9.562;2022-11-09T14:54:22;1.65;;;0.38;;
12425;SDS011;6277;49.824;9.562;2022-11-09T14:56:51;1.60;;;0.40;;
12425;SDS011;6277;49.824;9.562;2022-11-09T14:59:20;1.33;;;0.52;;
12425;SDS011;6277;49.824;9.562;2022-11-09T15:01:56;2.83;;;0.60;;
12425;SDS011;6277;49.824;9.562;2022-11-09T15:04:25;1.70;;;0.50;;
12425;SDS011;6277;49.824;9.562;2022-11-09T15:06:58;1.15;;;0.40;;
12425;SDS011;6277;49.824;9.562;2022-11-09T15:09:41;1.10;;;0.50;;
12425;SDS011;6277;49.824;9.562;2022-11-09T15:12:12;1.35;;;0.50;;
12425;SDS011;6277;49.824;9.562;2022-11-09T15:14:38;1.83;;;0.50;;
12425;SDS011;6277;49.824;9.562;2022-11-09T15:17:15;0.80;;;0.40;;
12425;SDS011;6277;49.824;9.562;2022-11-09T15:19:52;2.28;;;0.50;;
12425;SDS011;6277;49.824;9.562;2022-11-09T15:25:33;1.58;;;0.50;;
12425;SDS011;6277;49.824;9.562;2022-11-09T15:30:31;1.63;;;0.70;;
12425;SDS011;6277;49.824;9.562;2022-11-09T15:35:52;1.88;;;0.43;;
12425;SDS011;6277;49.824;9.562;2022-11-09T15:38:37;1.48;;;0.57;;
12425;SDS011;6277;49.824;9.562;2022-11-09T15:41:08;2.42;;;0.68;;
12425;SDS011;6277;49.824;9.562;2022-11-09T15:43:35;2.65;;;1.00;;
12425;SDS011;6277;49.824;9.562;2022-11-09T15:46:00;1.30;;;0.80;;
12425;SDS011;6277;49.824;9.562;2022-11-09T15:48:27;2.08;;;0.70;;
12425;SDS011;6277;49.824;9.562;2022-11-09T15:50:52;1.70;;;0.70;;
12425;SDS011;6277;49.824;9.562;2022-11-09T15:53:18;1.98;;;0.50;;
12425;SDS011;6277;49.824;9.562;2022-11-09T15:55:44;2.17;;;0.77;;
12425;SDS011;6277;49.824;9.562;2022-11-09T15:58:10;1.23;;;0.60;;
12425;SDS011;6277;49.824;9.562;2022-11-09T16:00:38;1.52;;;0.52;;
12425;SDS011;6277;49.824;9.562;2022-11-09T16:03:03;1.67;;;0.70;;
12425;SDS011;6277;49.824;9.562;2022-11-09T16:05:29;2.95;;;0.70;;
12425;SDS011;6277;49.824;9.562;2022-11-09T16:07:55;1.05;;;0.55;;
12425;SDS011;6277;49.824;9.562;2022-11-09T16:10:21;1.40;;;0.73;;
12425;SDS011;6277;49.824;9.562;2022-11-09T16:12:52;0.90;;;0.50;;
12425;SDS011;6277;49.824;9.562;2022-11-09T16:15:20;1.35;;;0.70;;
12425;SDS011;6277;49.824;9.562;2022-11-09T16:17:46;1.15;;;0.50;;
12425;SDS011;6277;49.824;9.562;2022-11-09T16:20:14;1.77;;;1.00;;
12425;SDS011;6277;49.824;9.562;2022-11-09T16:22:40;2.40;;;0.90;;
12425;SDS011;6277;49.824;9.562;2022-11-09T16:25:06;1.45;;;0.70;;
12425;SDS011;6277;49.824;9.562;2022-11-09T16:27:32;1.45;;;0.80;;
12425;SDS011;6277;49.824;9.562;2022-11-09T16:29:58;0.70;;;0.60;;
12425;SDS011;6277;49.824;9.562;2022-11-09T16:32:24;2.58;;;0.63;;
12425;SDS011;6277;49.824;9.562;2022-11-09T16:34:49;1.48;;;0.50;;
12425;SDS011;6277;49.824;9.562;2022-11-09T16:37:15;0.80;;;0.50;;
12425;SDS011;6277;49.824;9.562;2022-11-09T16:39:40;1.33;;;0.63;;
12425;SDS011;6277;49.824;9.562;2022-11-09T16:42:07;1.50;;;0.77;;
12425;SDS011;6277;49.824;9.562;2022-11-09T16:44:35;1.45;;;0.70;;
12425;SDS011;6277;49.824;9.562;2022-11-09T16:47:03;2.10;;;0.70;;
12425;SDS011;6277;49.824;9.562;2022-11-09T16:49:31;1.42;;;0.52;;
12425;SDS011;6277;49.824;9.562;2022-11-09T16:51:57;1.02;;;0.40;;
12425;SDS011;6277;49.824;9.562;2022-11-09T16:54:23;1.55;;;0.70;;
12425;SDS011;6277;49.824;9.562;2022-11-09T16:56:48;1.40;;;0.70;;
12425;SDS011;6277;49.824;9.562;2022-11-09T16:59:14;1.27;;;0.52;;
12425;SDS011;6277;49.824;9.562;2022-11-09T17:01:40;2.05;;;0.90;;
12425;SDS011;6277;49.824;9.562;2022-11-09T17:04:05;0.65;;;0.45;;
12425;SDS011;6277;49.824;9.562;2022-11-09T17:06:32;1.30;;;0.55;;
12425;SDS011;6277;49.824;9.562;2022-11-09T17:08:59;0.60;;;0.50;;
12425;SDS011;6277;49.824;9.562;2022-11-09T17:11:25;2.20;;;0.90;;